Latest Weather Observations for Mildura

IDN60801

Issued at 8:35 pm EDT Saturday 1 November 2014 (issued every 30 minutes, with the page automatically refreshed every 10 minutes)

About weather observations | Map of weather stations | Latest weather observations for NSW | Other Formats
Station Details ID: 076031 Name: MILDURA AIRPORT Lat: -34.24 Lon: 142.09 Height: 50.0 m
Data from the previous 72 hours. | See also: Recent months at Mildura
Date/Time
EDT
Temp
°C
App
Temp
°C
Dew
Point
Rel
Hum
%
Delta-T
°C
Wind Press
QNH
hPa
Press
MSL
hPa
Rain
since 9 am
mm
Dir
 
Spd
km/h
Gust
km/h
Spd
kts
Gust
kts
01/08:30pm 16.0 10.1 -2.0 29 7.3 SW 19 32 10 17 1018.4 1018.2 0.0
01/08:00pm 16.7 10.9 -1.4 29 7.5 SSW 19 28 10 15 1017.7 1017.5 0.0
01/07:30pm 17.7 11.3 -2.0 26 8.2 SW 22 33 12 18 1016.9 1016.7 0.0
01/07:00pm 18.6 11.6 -3.5 22 9.0 SW 24 43 13 23 1016.2 1016.1 0.0
01/06:30pm 19.1 11.4 -3.1 22 9.2 SW 28 43 15 23 1015.5 1015.4 0.0
01/06:00pm 19.8 11.6 -3.8 20 9.6 SW 30 44 16 24 1015.1 1015.0 0.0
01/05:30pm 20.0 12.0 -2.3 22 9.4 SW 30 50 16 27 1014.5 1014.4 0.0
01/05:19pm 20.0 11.8 -3.6 20 9.7 SW 30 48 16 26 1014.4 1014.3 0.0
01/05:00pm 20.7 13.4 -3.0 20 9.9 SW 26 41 14 22 1014.0 1013.9 0.0
01/04:30pm 20.6 13.0 -1.8 22 9.6 SW 28 48 15 26 1013.8 1013.7 0.0
01/04:17pm 20.0 12.0 -2.3 22 9.4 SW 30 52 16 28 1013.5 1013.4 0.0
01/04:00pm 20.4 12.1 -1.4 23 9.4 SW 32 48 17 26 1013.7 1013.6 0.0
01/03:30pm 20.8 12.7 -3.0 20 10.0 SW 30 50 16 27 1013.6 1013.5 0.0
01/03:01pm 20.8 12.1 -0.5 24 9.4 SW 35 54 19 29 1013.4 1013.3 0.0
01/03:00pm 20.7 12.4 0.0 25 9.2 SW 33 50 18 27 1013.4 1013.3 0.0
01/02:32pm 20.8 13.6 0.6 26 9.1 SW 28 50 15 27 1013.4 1013.3 0.0
01/02:30pm 21.3 14.5 0.5 25 9.4 SW 26 50 14 27 1013.3 1013.2 0.0
01/02:06pm 20.3 13.0 -0.3 25 9.1 SW 28 52 15 28 1013.2 1013.1 0.0
01/02:00pm 20.9 13.3 0.7 26 9.1 SW 30 44 16 24 1013.2 1013.1 0.0
01/01:30pm 20.1 13.3 2.9 32 8.1 SW 28 48 15 26 1013.0 1012.9 0.0
01/01:00pm 20.0 12.9 3.3 33 7.9 WSW 30 48 16 26 1013.0 1012.9 0.0
01/12:56pm 19.9 13.3 4.0 35 7.6 SW 28 46 15 25 1012.9 1012.8 0.0
01/12:30pm 19.5 12.9 4.4 37 7.3 SW 28 44 15 24 1012.6 1012.5 0.0
01/12:00pm 19.6 12.2 4.1 36 7.4 SW 32 56 17 30 1012.7 1012.6 0.0
01/11:32am 18.7 11.9 3.3 36 7.2 SW 28 46 15 25 1012.6 1012.5 0.0
01/11:30am 19.1 12.9 4.1 37 7.2 SW 26 46 14 25 1012.5 1012.4 0.0
01/11:06am 17.4 10.5 2.6 37 6.8 WSW 28 48 15 26 1012.5 1012.4 0.0
01/11:00am 18.2 12.0 4.4 40 6.6 SW 26 41 14 22 1012.5 1012.4 0.0
01/10:34am 17.5 11.1 5.4 45 5.9 SW 28 46 15 25 1012.2 1012.1 0.0
01/10:30am 17.2 10.4 4.9 44 5.9 SW 30 46 16 25 1012.2 1012.1 0.0
01/10:01am 16.8 10.9 7.4 54 4.7 SW 28 46 15 25 1011.7 1011.6 0.0
01/10:00am 16.5 10.1 6.9 53 4.8 SW 30 46 16 25 1011.7 1011.6 0.0
01/09:30am 15.0 8.9 9.8 71 2.7 SW 32 52 17 28 1011.1 1011.0 0.0
01/09:00am 15.2 10.3 11.4 78 2.0 WSW 28 48 15 26 1010.3 1010.2 1.8
01/08:30am 14.7 10.4 12.2 85 1.4 WSW 26 43 14 23 1009.7 1009.6 1.8
01/08:00am 15.4 12.9 12.3 82 1.7 W 17 32 9 17 1009.1 1009.0 1.8
01/07:30am 14.6 12.3 11.7 83 1.6 WSW 15 22 8 12 1008.4 1008.3 1.8
01/07:00am 14.6 11.9 11.6 82 1.6 SW 17 24 9 13 1007.7 1007.6 1.8
01/06:30am 14.7 11.6 11.7 82 1.6 SW 19 30 10 16 1006.9 1006.8 1.8
01/06:00am 14.7 11.7 11.8 83 1.6 SW 19 32 10 17 1006.1 1006.0 1.8
01/05:30am 14.9 11.3 12.0 83 1.6 SW 22 37 12 20 1005.2 1005.1 1.8
01/05:00am 15.3 12.4 12.8 85 1.4 WSW 20 32 11 17 1005.3 1005.2 1.8
01/04:30am 15.2 13.5 13.6 90 0.9 WSW 15 22 8 12 1004.8 1004.7 1.8
01/04:00am 15.4 15.1 13.4 88 1.1 W 7 11 4 6 1004.5 1004.4 1.8
01/03:51am 15.4 15.3 13.8 90 0.9 WSW 7 11 4 6 1004.4 1004.3 1.8
01/03:30am 15.8 15.5 13.3 85 1.4 W 7 11 4 6 1005.2 1005.1 1.2
01/03:00am 17.3 15.3 11.6 69 3.1 WSW 13 20 7 11 1005.2 1005.1 0.0
01/02:30am 18.7 16.1 9.2 54 5.0 WSW 13 20 7 11 1005.0 1004.9 0.0
01/02:00am 19.3 17.0 8.9 51 5.5 WSW 11 15 6 8 1004.7 1004.6 0.0
01/01:30am 19.3 16.7 9.5 53 5.2 SW 13 22 7 12 1004.4 1004.3 0.0
01/01:00am 19.8 15.1 9.4 51 5.5 SW 24 39 13 21 1003.5 1003.4 0.0
01/12:30am 21.8 15.0 7.6 40 7.4 SW 33 54 18 29 1002.6 1002.5 0.0
01/12:16am 24.0 17.5 8.0 36 8.5 SW 32 50 17 27 1001.8 1001.7 0.0
01/12:00am 25.8 20.6 5.4 27 10.5 SSW 22 32 12 17 1001.1 1001.0 0.0
 
Date/Time
EDT
Temp
°C
App
Temp
°C
Dew
Point
Rel
Hum
%
Delta-T
°C
Wind Press
QNH
hPa
Press
MSL
hPa
Rain
since 9 am
mm
Dir
 
Spd
km/h
Gust
km/h
Spd
kts
Gust
kts
31/11:30pm 26.8 21.2 3.3 22 11.7 SSW 22 37 12 20 1000.5 1000.4 0.0
31/11:03pm 28.1 21.2 2.3 19 12.7 WSW 28 46 15 25 1000.7 1000.6 0.0
31/11:00pm 28.6 22.0 2.0 18 13.1 WSW 26 43 14 23 1000.7 1000.6 0.0
31/10:30pm 27.1 23.0 2.2 20 12.1 N 13 13 7 7 998.9 998.8 0.0
31/10:00pm 25.6 22.0 5.2 27 10.5 NNE 13 15 7 8 999.1 999.0 0.0
31/09:30pm 26.8 23.4 4.0 23 11.5 NNE 11 13 6 7 999.2 999.1 0.0
31/09:00pm 28.1 24.1 0.8 17 13.1 N 11 13 6 7 999.2 999.1 0.0
31/08:30pm 31.3 26.8 -0.4 13 15.2 N 13 17 7 9 999.4 999.3 0.0
31/08:00pm 33.0 28.4 -1.4 11 16.5 N 13 22 7 12 999.6 999.5 0.0
31/07:30pm 34.0 28.3 -0.6 11 16.8 NNW 19 30 10 16 999.7 999.6 0.0
31/07:00pm 35.3 29.2 -2.3 9 18.1 NW 20 32 11 17 999.6 999.5 0.0
31/06:30pm 35.2 28.7 -2.4 9 17.9 WNW 22 35 12 19 999.9 999.8 0.0
31/06:00pm 35.4 29.5 -2.3 9 18.1 NW 19 30 10 16 1000.1 1000.0 0.0
31/05:30pm 36.0 29.0 -3.4 8 18.6 WNW 24 39 13 21 1000.3 1000.2 0.0
31/05:00pm 35.9 29.3 -3.5 8 18.6 NW 22 35 12 19 1000.6 1000.5 0.0
31/04:30pm 36.2 28.5 -3.3 8 18.7 NW 28 43 15 23 1000.9 1000.8 0.0
31/04:00pm 36.3 29.0 -3.2 8 18.8 NNW 26 44 14 24 1001.3 1001.2 0.0
31/03:32pm 36.6 28.9 -3.0 8 18.9 NNW 28 46 15 25 1001.8 1001.7 0.0
31/03:30pm 36.1 28.7 -3.3 8 18.6 NNW 26 46 14 25 1001.9 1001.8 0.0
31/03:12pm 36.9 29.2 -2.7 8 19.0 NW 28 46 15 25 1002.3 1002.2 0.0
31/03:00pm 37.3 30.4 -2.4 8 19.3 NW 24 37 13 20 1002.6 1002.5 0.0
31/02:42pm 36.6 28.9 -3.0 8 18.9 NW 28 50 15 27 1003.1 1003.0 0.0
31/02:30pm 36.4 29.4 -3.1 8 18.8 NNW 24 39 13 21 1003.1 1003.0 0.0
31/02:00pm 35.7 28.5 -2.0 9 18.2 NNW 26 43 14 23 1003.7 1003.6 0.0
31/01:30pm 35.5 27.9 -2.2 9 18.1 NNW 28 41 15 22 1004.2 1004.1 0.0
31/01:00pm 33.7 26.7 -0.8 11 16.8 N 26 39 14 21 1005.0 1004.9 0.0
31/12:30pm 33.0 27.2 -0.2 12 16.2 N 20 35 11 19 1005.5 1005.4 0.0
31/12:00pm 32.4 26.5 -0.6 12 15.9 N 20 30 11 16 1006.0 1005.9 0.0
31/11:30am 31.8 25.4 1.0 14 15.2 N 24 32 13 17 1006.5 1006.4 0.0
31/11:00am 29.6 22.8 1.1 16 13.9 N 26 35 14 19 1007.1 1007.0 0.0
31/10:30am 27.7 21.0 1.2 18 12.7 NNE 26 35 14 19 1007.8 1007.7 0.0
31/10:00am 26.3 20.7 0.9 19 12.0 NE 20 28 11 15 1008.2 1008.1 0.0
31/09:30am 24.6 19.1 0.8 21 11.1 NE 19 28 10 15 1008.5 1008.4 0.0
31/09:00am 22.1 17.9 1.7 26 9.5 ENE 13 19 7 10 1008.8 1008.7 0.0
31/08:30am 20.1 16.8 2.5 31 8.2 ENE 9 11 5 6 1009.0 1008.9 0.0
31/08:00am 19.0 16.0 2.0 32 7.8 ENE 7 13 4 7 1009.2 1009.1 0.0
31/07:30am 17.7 14.4 2.5 36 6.9 E 9 11 5 6 1009.3 1009.2 0.0
31/07:00am 17.2 13.5 2.4 37 6.7 E 11 13 6 7 1009.3 1009.2 0.0
31/06:30am 17.0 13.6 1.8 36 6.8 E 9 13 5 7 1009.5 1009.4 0.0
31/06:00am 17.0 13.6 1.8 36 6.8 E 9 13 5 7 1009.4 1009.3 0.0
31/05:30am 17.2 13.8 2.0 36 6.8 ESE 9 13 5 7 1009.4 1009.3 0.0
31/05:00am 17.2 14.2 2.0 36 6.9 ESE 7 9 4 5 1009.4 1009.3 0.0
31/04:30am 17.1 13.7 1.9 36 6.8 ESE 9 13 5 7 1009.3 1009.2 0.0
31/04:00am 16.2 12.8 1.9 38 6.4 SSE 9 9 5 5 1009.4 1009.3 0.0
31/03:30am 15.5 12.3 0.9 37 6.3 SE 7 11 4 6 1009.7 1009.6 0.0
31/03:00am 16.2 12.6 0.7 35 6.7 S 9 13 5 7 1009.8 1009.7 0.0
31/02:30am 16.2 12.7 1.5 37 6.5 S 9 13 5 7 1010.0 1009.9 0.0
31/02:00am 16.2 12.8 1.9 38 6.4 S 9 11 5 6 1010.3 1010.2 0.0
31/01:30am 16.2 13.2 1.9 38 6.4 S 7 9 4 5 1010.9 1010.8 0.0
31/01:00am 16.5 13.3 1.0 35 6.8 SSE 7 9 4 5 1011.1 1011.0 0.0
31/12:30am 17.4 14.3 1.4 34 7.1 S 7 9 4 5 1011.3 1011.2 0.0
31/12:00am 18.3 15.2 1.3 32 7.6 S 7 9 4 5 1011.5 1011.4 0.0
 
Date/Time
EDT
Temp
°C
App
Temp
°C
Dew
Point
Rel
Hum
%
Delta-T
°C
Wind Press
QNH
hPa
Press
MSL
hPa
Rain
since 9 am
mm
Dir
 
Spd
km/h
Gust
km/h
Spd
kts
Gust
kts
30/11:30pm 19.0 15.5 1.1 30 8.0 SSE 9 11 5 6 1011.5 1011.4 0.0
30/11:00pm 20.2 16.7 1.1 28 8.7 S 9 11 5 6 1011.6 1011.5 0.0
30/10:30pm 20.1 17.1 2.0 30 8.3 S 7 9 4 5 1011.7 1011.6 0.0
30/10:00pm 21.0 18.0 1.8 28 8.9 SSE 7 9 4 5 1011.6 1011.5 0.0
30/09:30pm 22.4 19.2 0.9 24 9.9 S 7 9 4 5 1011.6 1011.5 0.0
30/09:00pm 23.6 20.5 1.3 23 10.4 SSW 7 7 4 4 1011.7 1011.6 0.0
30/08:30pm 25.1 22.0 1.3 21 11.2 SW 7 9 4 5 1011.8 1011.7 0.0
30/08:00pm 26.9 23.3 0.6 18 12.4 SW 9 11 5 6 1011.5 1011.4 0.0
30/07:30pm 28.6 24.3 1.2 17 13.3 WSW 13 19 7 10 1011.1 1011.0 0.0
30/07:00pm 30.0 26.2 1.5 16 14.0 W 11 20 6 11 1011.0 1010.9 0.0
30/06:30pm 30.4 27.0 1.8 16 14.2 W 9 15 5 8 1010.8 1010.7 0.0
30/06:00pm 30.9 27.6 2.2 16 14.4 WNW 9 13 5 7 1010.8 1010.7 0.0
30/05:30pm 31.0 27.1 1.4 15 14.6 W 11 20 6 11 1011.0 1010.9 0.0
30/05:00pm 30.6 25.7 1.9 16 14.3 W 17 24 9 13 1011.2 1011.1 0.0
30/04:30pm 30.8 26.1 2.9 17 14.1 W 17 30 9 16 1011.3 1011.2 0.0
30/04:00pm 30.2 26.4 4.0 19 13.5 W 13 20 7 11 1011.6 1011.5 0.0
30/03:30pm 30.0 24.9 3.1 18 13.6 WNW 19 24 10 13 1012.0 1011.9 0.0
30/03:00pm 30.0 26.1 5.3 21 12.9 NNW 15 24 8 13 1012.5 1012.4 0.0
30/02:30pm 29.1 25.5 5.2 22 12.4 W 13 22 7 12 1013.0 1013.0 0.0
30/02:00pm 28.6 25.5 5.5 23 12.0 NW 11 19 6 10 1013.4 1013.4 0.0
30/01:30pm 28.1 25.5 6.2 25 11.5 W 9 17 5 9 1013.8 1013.8 0.0
30/01:00pm 26.7 24.3 7.2 29 10.4 NW 9 19 5 10 1014.1 1014.1 0.0
30/12:37pm 26.6 24.0 7.6 30 10.2 S 11 17 6 9 1014.4 1014.4 0.0
30/12:30pm 26.1 23.7 7.2 30 10.0 S 9 17 5 9 1014.5 1014.5 0.0
30/12:00pm 24.7 22.3 6.9 32 9.3 SSE 9 19 5 10 1015.0 1015.0 0.0
30/11:30am 23.8 22.1 7.4 35 8.6 S 6 13 3 7 1015.4 1015.4 0.0
30/11:00am 22.4 20.6 8.1 40 7.5 S 7 13 4 7 1015.8 1015.8 0.0
30/10:30am 21.2 18.5 8.8 45 6.6 SSE 13 20 7 11 1016.1 1016.1 0.0
30/10:00am 20.1 17.1 9.1 49 5.8 S 15 24 8 13 1016.2 1016.2 0.0
30/09:30am 19.4 17.2 9.3 52 5.3 SE 11 17 6 9 1016.0 1016.0 0.0
30/09:00am 17.9 16.0 9.0 56 4.6 ESE 9 13 5 7 1015.9 1015.9 0.0
30/08:30am 16.3 13.9 8.8 61 3.9 S 11 15 6 8 1016.0 1016.0 0.0
30/08:00am 15.0 12.2 8.7 66 3.2 S 13 22 7 12 1016.1 1016.1 0.0
30/07:30am 13.6 11.1 8.0 69 2.8 SSW 11 15 6 8 1015.7 1015.7 0.0
30/07:00am 12.6 10.7 7.7 72 2.4 SSW 7 11 4 6 1015.6 1015.6 0.0
30/06:30am 12.6 10.8 7.3 70 2.6 S 6 7 3 4 1015.2 1015.2 0.0
30/06:00am 13.8 11.9 7.6 66 3.1 S 7 9 4 5 1015.0 1015.0 0.0
30/05:30am 14.4 12.2 7.7 64 3.3 S 9 13 5 7 1014.6 1014.6 0.0
30/05:00am 15.3 13.1 7.8 61 3.7 S 9 13 5 7 1014.6 1014.6 0.0
30/04:30am 16.1 13.5 7.8 58 4.2 S 11 19 6 10 1014.6 1014.6 0.0
30/04:00am 16.9 13.9 7.8 55 4.6 S 13 19 7 10 1014.7 1014.7 0.0
30/03:30am 17.4 14.0 7.7 53 4.9 S 15 22 8 12 1015.1 1015.1 0.0
30/03:00am 17.5 14.0 7.3 51 5.1 S 15 20 8 11 1015.1 1015.1 0.0
30/02:30am 17.6 14.0 6.8 49 5.4 S 15 20 8 11 1015.2 1015.2 0.0
30/02:00am 17.7 14.2 5.3 44 6.0 SSW 13 20 7 11 1015.2 1015.2 0.0
30/01:30am 17.6 14.0 3.1 38 6.7 SW 11 17 6 9 1015.3 1015.3 0.0
30/01:00am 16.5 13.2 4.5 45 5.7 SSW 11 13 6 7 1015.2 1015.2 0.0
30/12:30am 16.1 14.8 4.2 45 5.6 CALM 0 0 0 0 1015.0 1015.0 0.0
30/12:00am 17.2 16.2 5.5 46 5.7 CALM 0 0 0 0 1015.1 1015.1 0.0
 
Date/Time
EDT
Temp
°C
App
Temp
°C
Dew
Point
Rel
Hum
%
Delta-T
°C
Wind Press
QNH
hPa
Press
MSL
hPa
Rain
since 9 am
mm
Dir
 
Spd
km/h
Gust
km/h
Spd
kts
Gust
kts
29/11:30pm 17.5 16.5 5.4 45 5.9 CALM 0 0 0 0 1015.1 1015.1 0.0
29/11:00pm 17.6 15.6 6.2 47 5.6 E 6 7 3 4 1015.2 1015.2 0.0
29/10:30pm 17.5 16.2 6.1 47 5.6 E 2 7 1 4 1015.2 1015.2 0.0
29/10:00pm 18.2 16.8 3.7 38 6.8 CALM 0 0 0 0 1015.3 1015.3 0.0
29/09:30pm 19.3 17.8 3.1 34 7.6 CALM 0 0 0 0 1015.4 1015.4 0.0
29/09:00pm 20.1 18.7 3.8 34 7.8 CALM 0 0 0 0 1015.4 1015.4 0.0

Other Formats:

Comma delimited format used in spreadsheet applications
http://www.bom.gov.au/fwo/IDN60801/IDN60801.94693.axf

JavaScript Object Notation format (JSON) in row-major order
http://www.bom.gov.au/fwo/IDN60801/IDN60801.94693.json